sensor_id;sensor_type;location;lat;lon;timestamp;P1;durP1;ratioP1;P2;durP2;ratioP2
65373;SDS011;52070;53.760;9.678;2023-04-24T00:02:02;12.63;;;9.77;;
65373;SDS011;52070;53.760;9.678;2023-04-24T00:04:29;13.20;;;9.95;;
65373;SDS011;52070;53.760;9.678;2023-04-24T00:06:57;14.55;;;10.45;;
65373;SDS011;52070;53.760;9.678;2023-04-24T00:09:25;15.80;;;11.07;;
65373;SDS011;52070;53.760;9.678;2023-04-24T00:11:52;16.35;;;11.30;;
65373;SDS011;52070;53.760;9.678;2023-04-24T00:14:21;15.02;;;10.68;;
65373;SDS011;52070;53.760;9.678;2023-04-24T00:16:48;14.40;;;10.52;;
65373;SDS011;52070;53.760;9.678;2023-04-24T00:19:15;16.27;;;10.50;;
65373;SDS011;52070;53.760;9.678;2023-04-24T00:21:42;15.13;;;10.70;;
65373;SDS011;52070;53.760;9.678;2023-04-24T00:24:09;17.13;;;10.80;;
65373;SDS011;52070;53.760;9.678;2023-04-24T00:26:36;14.48;;;10.05;;
65373;SDS011;52070;53.760;9.678;2023-04-24T00:29:03;11.98;;;9.88;;
65373;SDS011;52070;53.760;9.678;2023-04-24T00:31:31;15.60;;;9.80;;
65373;SDS011;52070;53.760;9.678;2023-04-24T00:34:00;14.45;;;10.32;;
65373;SDS011;52070;53.760;9.678;2023-04-24T00:36:27;14.93;;;10.00;;
65373;SDS011;52070;53.760;9.678;2023-04-24T00:38:56;17.08;;;10.02;;
65373;SDS011;52070;53.760;9.678;2023-04-24T00:41:24;15.25;;;9.95;;
65373;SDS011;52070;53.760;9.678;2023-04-24T00:43:52;12.77;;;9.80;;
65373;SDS011;52070;53.760;9.678;2023-04-24T00:46:19;16.13;;;9.95;;
65373;SDS011;52070;53.760;9.678;2023-04-24T00:48:48;12.45;;;10.00;;
65373;SDS011;52070;53.760;9.678;2023-04-24T00:51:15;13.98;;;9.77;;
65373;SDS011;52070;53.760;9.678;2023-04-24T00:53:43;14.15;;;10.25;;
65373;SDS011;52070;53.760;9.678;2023-04-24T00:56:10;13.48;;;10.70;;
65373;SDS011;52070;53.760;9.678;2023-04-24T00:58:37;15.18;;;10.27;;
65373;SDS011;52070;53.760;9.678;2023-04-24T01:01:05;12.95;;;10.10;;
65373;SDS011;52070;53.760;9.678;2023-04-24T01:03:32;14.45;;;10.75;;
65373;SDS011;52070;53.760;9.678;2023-04-24T01:06:04;15.45;;;11.02;;
65373;SDS011;52070;53.760;9.678;2023-04-24T01:08:31;16.73;;;11.40;;
65373;SDS011;52070;53.760;9.678;2023-04-24T01:10:59;16.88;;;11.57;;
65373;SDS011;52070;53.760;9.678;2023-04-24T01:13:29;15.73;;;11.90;;
65373;SDS011;52070;53.760;9.678;2023-04-24T01:15:58;16.42;;;10.88;;
65373;SDS011;52070;53.760;9.678;2023-04-24T01:18:25;16.52;;;11.13;;
65373;SDS011;52070;53.760;9.678;2023-04-24T01:20:53;15.80;;;11.10;;
65373;SDS011;52070;53.760;9.678;2023-04-24T01:23:24;18.45;;;10.63;;
65373;SDS011;52070;53.760;9.678;2023-04-24T01:25:52;17.80;;;11.30;;
65373;SDS011;52070;53.760;9.678;2023-04-24T01:28:19;15.27;;;11.43;;
65373;SDS011;52070;53.760;9.678;2023-04-24T01:30:46;13.52;;;10.95;;
65373;SDS011;52070;53.760;9.678;2023-04-24T01:33:13;14.90;;;10.90;;
65373;SDS011;52070;53.760;9.678;2023-04-24T01:35:40;14.70;;;11.40;;
65373;SDS011;52070;53.760;9.678;2023-04-24T01:38:07;15.15;;;11.00;;
65373;SDS011;52070;53.760;9.678;2023-04-24T01:40:36;16.88;;;10.40;;
65373;SDS011;52070;53.760;9.678;2023-04-24T01:43:03;17.10;;;10.80;;
65373;SDS011;52070;53.760;9.678;2023-04-24T01:45:30;12.85;;;9.68;;
65373;SDS011;52070;53.760;9.678;2023-04-24T01:47:57;15.10;;;9.73;;
65373;SDS011;52070;53.760;9.678;2023-04-24T01:50:24;14.80;;;9.50;;
65373;SDS011;52070;53.760;9.678;2023-04-24T01:52:51;15.40;;;9.13;;
65373;SDS011;52070;53.760;9.678;2023-04-24T01:55:18;11.77;;;8.02;;
65373;SDS011;52070;53.760;9.678;2023-04-24T01:57:47;12.07;;;8.25;;
65373;SDS011;52070;53.760;9.678;2023-04-24T02:00:14;9.13;;;7.68;;
65373;SDS011;52070;53.760;9.678;2023-04-24T02:02:41;11.18;;;7.57;;
65373;SDS011;52070;53.760;9.678;2023-04-24T02:05:08;12.32;;;7.50;;
65373;SDS011;52070;53.760;9.678;2023-04-24T02:07:36;11.52;;;7.25;;
65373;SDS011;52070;53.760;9.678;2023-04-24T02:10:03;11.15;;;7.40;;
65373;SDS011;52070;53.760;9.678;2023-04-24T02:12:31;9.40;;;6.28;;
65373;SDS011;52070;53.760;9.678;2023-04-24T02:14:59;11.38;;;6.15;;
65373;SDS011;52070;53.760;9.678;2023-04-24T02:17:26;8.70;;;5.63;;
65373;SDS011;52070;53.760;9.678;2023-04-24T02:19:53;6.25;;;5.22;;
65373;SDS011;52070;53.760;9.678;2023-04-24T02:22:20;6.22;;;5.03;;
65373;SDS011;52070;53.760;9.678;2023-04-24T02:24:47;7.28;;;5.47;;
65373;SDS011;52070;53.760;9.678;2023-04-24T02:27:14;6.50;;;4.88;;
65373;SDS011;52070;53.760;9.678;2023-04-24T02:29:41;7.68;;;4.70;;
65373;SDS011;52070;53.760;9.678;2023-04-24T02:32:09;5.07;;;4.43;;
65373;SDS011;52070;53.760;9.678;2023-04-24T02:34:37;6.90;;;5.32;;
65373;SDS011;52070;53.760;9.678;2023-04-24T02:37:04;6.82;;;4.30;;
65373;SDS011;52070;53.760;9.678;2023-04-24T02:39:31;5.88;;;4.00;;
65373;SDS011;52070;53.760;9.678;2023-04-24T02:41:58;5.43;;;4.07;;
65373;SDS011;52070;53.760;9.678;2023-04-24T02:44:25;6.78;;;4.43;;
65373;SDS011;52070;53.760;9.678;2023-04-24T02:46:52;6.78;;;4.43;;
65373;SDS011;52070;53.760;9.678;2023-04-24T02:49:20;6.78;;;4.38;;
65373;SDS011;52070;53.760;9.678;2023-04-24T02:51:47;5.65;;;4.20;;
65373;SDS011;52070;53.760;9.678;2023-04-24T02:54:14;4.95;;;4.38;;
65373;SDS011;52070;53.760;9.678;2023-04-24T02:56:41;5.32;;;4.18;;
65373;SDS011;52070;53.760;9.678;2023-04-24T02:59:08;5.65;;;3.70;;
65373;SDS011;52070;53.760;9.678;2023-04-24T03:01:35;4.30;;;3.80;;
65373;SDS011;52070;53.760;9.678;2023-04-24T03:04:02;4.55;;;3.58;;
65373;SDS011;52070;53.760;9.678;2023-04-24T03:06:31;5.30;;;3.60;;
65373;SDS011;52070;53.760;9.678;2023-04-24T03:11:27;4.63;;;3.47;;
65373;SDS011;52070;53.760;9.678;2023-04-24T03:13:54;3.55;;;2.80;;
65373;SDS011;52070;53.760;9.678;2023-04-24T03:16:21;4.38;;;3.20;;
65373;SDS011;52070;53.760;9.678;2023-04-24T03:18:48;5.32;;;3.28;;
65373;SDS011;52070;53.760;9.678;2023-04-24T03:21:15;4.28;;;3.20;;
65373;SDS011;52070;53.760;9.678;2023-04-24T03:23:43;3.90;;;2.70;;
65373;SDS011;52070;53.760;9.678;2023-04-24T03:26:10;3.03;;;2.72;;
65373;SDS011;52070;53.760;9.678;2023-04-24T03:28:37;3.63;;;3.10;;
65373;SDS011;52070;53.760;9.678;2023-04-24T03:31:06;3.13;;;2.88;;
65373;SDS011;52070;53.760;9.678;2023-04-24T03:33:33;3.58;;;2.67;;
65373;SDS011;52070;53.760;9.678;2023-04-24T03:35:59;2.70;;;2.50;;
65373;SDS011;52070;53.760;9.678;2023-04-24T03:38:26;7.45;;;2.60;;
65373;SDS011;52070;53.760;9.678;2023-04-24T03:40:55;2.85;;;2.55;;
65373;SDS011;52070;53.760;9.678;2023-04-24T03:43:21;4.50;;;2.55;;
65373;SDS011;52070;53.760;9.678;2023-04-24T03:45:48;5.00;;;2.60;;
65373;SDS011;52070;53.760;9.678;2023-04-24T03:48:15;3.10;;;2.58;;
65373;SDS011;52070;53.760;9.678;2023-04-24T03:50:42;3.30;;;2.67;;
65373;SDS011;52070;53.760;9.678;2023-04-24T03:53:09;3.03;;;2.72;;
65373;SDS011;52070;53.760;9.678;2023-04-24T03:55:36;4.65;;;2.45;;
65373;SDS011;52070;53.760;9.678;2023-04-24T03:58:05;2.40;;;2.20;;
65373;SDS011;52070;53.760;9.678;2023-04-24T04:00:32;5.10;;;2.63;;
65373;SDS011;52070;53.760;9.678;2023-04-24T04:03:00;6.95;;;2.40;;
65373;SDS011;52070;53.760;9.678;2023-04-24T04:05:27;4.03;;;2.80;;
65373;SDS011;52070;53.760;9.678;2023-04-24T04:07:54;2.67;;;2.40;;
65373;SDS011;52070;53.760;9.678;2023-04-24T04:10:21;4.30;;;2.47;;
65373;SDS011;52070;53.760;9.678;2023-04-24T04:12:48;8.45;;;2.60;;
65373;SDS011;52070;53.760;9.678;2023-04-24T04:15:16;3.30;;;2.92;;
65373;SDS011;52070;53.760;9.678;2023-04-24T04:17:43;5.00;;;2.88;;
65373;SDS011;52070;53.760;9.678;2023-04-24T04:20:11;4.30;;;2.83;;
65373;SDS011;52070;53.760;9.678;2023-04-24T04:22:38;6.22;;;2.95;;
65373;SDS011;52070;53.760;9.678;2023-04-24T04:25:05;4.63;;;2.80;;
65373;SDS011;52070;53.760;9.678;2023-04-24T04:27:34;5.80;;;2.72;;
65373;SDS011;52070;53.760;9.678;2023-04-24T04:30:01;4.88;;;2.80;;
65373;SDS011;52070;53.760;9.678;2023-04-24T04:32:31;3.53;;;3.10;;
65373;SDS011;52070;53.760;9.678;2023-04-24T04:34:59;3.00;;;2.70;;
65373;SDS011;52070;53.760;9.678;2023-04-24T04:37:28;5.10;;;2.88;;
65373;SDS011;52070;53.760;9.678;2023-04-24T04:39:55;2.90;;;2.70;;
65373;SDS011;52070;53.760;9.678;2023-04-24T04:42:23;2.80;;;2.50;;
65373;SDS011;52070;53.760;9.678;2023-04-24T04:44:50;3.20;;;2.90;;
65373;SDS011;52070;53.760;9.678;2023-04-24T04:47:17;4.65;;;3.03;;
65373;SDS011;52070;53.760;9.678;2023-04-24T04:49:45;3.28;;;2.97;;
65373;SDS011;52070;53.760;9.678;2023-04-24T04:52:13;8.45;;;3.15;;
65373;SDS011;52070;53.760;9.678;2023-04-24T04:54:42;3.50;;;2.95;;
65373;SDS011;52070;53.760;9.678;2023-04-24T04:57:09;4.72;;;2.58;;
65373;SDS011;52070;53.760;9.678;2023-04-24T04:59:37;3.22;;;2.92;;
65373;SDS011;52070;53.760;9.678;2023-04-24T05:02:04;5.60;;;3.00;;
65373;SDS011;52070;53.760;9.678;2023-04-24T05:04:31;3.17;;;2.92;;
65373;SDS011;52070;53.760;9.678;2023-04-24T05:06:59;3.00;;;2.72;;
65373;SDS011;52070;53.760;9.678;2023-04-24T05:09:26;2.90;;;2.53;;
65373;SDS011;52070;53.760;9.678;2023-04-24T05:11:54;2.90;;;2.60;;
65373;SDS011;52070;53.760;9.678;2023-04-24T05:14:21;3.53;;;2.40;;
65373;SDS011;52070;53.760;9.678;2023-04-24T05:16:48;2.92;;;2.30;;
65373;SDS011;52070;53.760;9.678;2023-04-24T05:19:15;2.78;;;2.50;;
65373;SDS011;52070;53.760;9.678;2023-04-24T05:21:42;3.17;;;2.25;;
65373;SDS011;52070;53.760;9.678;2023-04-24T05:24:10;2.97;;;2.33;;
65373;SDS011;52070;53.760;9.678;2023-04-24T05:26:37;3.50;;;2.30;;
65373;SDS011;52070;53.760;9.678;2023-04-24T05:29:04;3.33;;;2.15;;
65373;SDS011;52070;53.760;9.678;2023-04-24T05:31:31;3.13;;;2.30;;
65373;SDS011;52070;53.760;9.678;2023-04-24T05:33:58;2.55;;;1.80;;
65373;SDS011;52070;53.760;9.678;2023-04-24T05:36:25;4.05;;;2.42;;
65373;SDS011;52070;53.760;9.678;2023-04-24T05:38:52;2.47;;;2.25;;
65373;SDS011;52070;53.760;9.678;2023-04-24T05:41:20;3.33;;;2.33;;
65373;SDS011;52070;53.760;9.678;2023-04-24T05:43:48;2.90;;;1.90;;
65373;SDS011;52070;53.760;9.678;2023-04-24T05:46:14;3.85;;;2.05;;
65373;SDS011;52070;53.760;9.678;2023-04-24T05:48:41;3.97;;;2.13;;
65373;SDS011;52070;53.760;9.678;2023-04-24T05:51:08;3.70;;;1.75;;
65373;SDS011;52070;53.760;9.678;2023-04-24T05:53:35;2.08;;;1.88;;
65373;SDS011;52070;53.760;9.678;2023-04-24T05:56:02;3.15;;;1.52;;
65373;SDS011;52070;53.760;9.678;2023-04-24T05:58:31;2.00;;;1.40;;
65373;SDS011;52070;53.760;9.678;2023-04-24T06:00:57;3.92;;;1.60;;
65373;SDS011;52070;53.760;9.678;2023-04-24T06:03:26;2.78;;;1.40;;
65373;SDS011;52070;53.760;9.678;2023-04-24T06:05:54;3.33;;;1.50;;
65373;SDS011;52070;53.760;9.678;2023-04-24T06:08:21;1.60;;;1.50;;
65373;SDS011;52070;53.760;9.678;2023-04-24T06:10:48;4.18;;;1.50;;
65373;SDS011;52070;53.760;9.678;2023-04-24T06:13:15;1.80;;;1.48;;
65373;SDS011;52070;53.760;9.678;2023-04-24T06:15:43;1.88;;;1.40;;
65373;SDS011;52070;53.760;9.678;2023-04-24T06:18:10;2.05;;;1.60;;
65373;SDS011;52070;53.760;9.678;2023-04-24T06:20:38;1.85;;;1.40;;
65373;SDS011;52070;53.760;9.678;2023-04-24T06:23:05;2.65;;;1.77;;
65373;SDS011;52070;53.760;9.678;2023-04-24T06:25:32;1.70;;;1.40;;
65373;SDS011;52070;53.760;9.678;2023-04-24T06:27:59;2.08;;;1.60;;
65373;SDS011;52070;53.760;9.678;2023-04-24T06:30:27;1.50;;;1.40;;
65373;SDS011;52070;53.760;9.678;2023-04-24T06:32:55;3.00;;;1.42;;
65373;SDS011;52070;53.760;9.678;2023-04-24T06:35:22;3.53;;;1.70;;
65373;SDS011;52070;53.760;9.678;2023-04-24T06:37:49;2.22;;;1.52;;
65373;SDS011;52070;53.760;9.678;2023-04-24T06:40:16;3.53;;;1.65;;
65373;SDS011;52070;53.760;9.678;2023-04-24T06:42:44;1.40;;;1.30;;
65373;SDS011;52070;53.760;9.678;2023-04-24T06:45:11;2.08;;;1.65;;
65373;SDS011;52070;53.760;9.678;2023-04-24T06:47:37;2.22;;;1.80;;
65373;SDS011;52070;53.760;9.678;2023-04-24T06:50:06;2.45;;;1.60;;
65373;SDS011;52070;53.760;9.678;2023-04-24T06:52:34;1.70;;;1.58;;
65373;SDS011;52070;53.760;9.678;2023-04-24T06:55:01;2.13;;;1.92;;
65373;SDS011;52070;53.760;9.678;2023-04-24T06:57:28;4.72;;;1.80;;
65373;SDS011;52070;53.760;9.678;2023-04-24T06:59:55;3.97;;;1.88;;
65373;SDS011;52070;53.760;9.678;2023-04-24T07:02:22;2.10;;;1.90;;
65373;SDS011;52070;53.760;9.678;2023-04-24T07:04:49;3.05;;;2.10;;
65373;SDS011;52070;53.760;9.678;2023-04-24T07:07:17;3.20;;;2.25;;
65373;SDS011;52070;53.760;9.678;2023-04-24T07:09:44;7.28;;;2.20;;
65373;SDS011;52070;53.760;9.678;2023-04-24T07:12:11;4.10;;;2.03;;
65373;SDS011;52070;53.760;9.678;2023-04-24T07:14:39;2.42;;;2.10;;
65373;SDS011;52070;53.760;9.678;2023-04-24T07:17:06;3.60;;;2.22;;
65373;SDS011;52070;53.760;9.678;2023-04-24T07:19:33;3.65;;;2.25;;
65373;SDS011;52070;53.760;9.678;2023-04-24T07:22:00;3.40;;;2.30;;
65373;SDS011;52070;53.760;9.678;2023-04-24T07:24:30;2.80;;;2.25;;
65373;SDS011;52070;53.760;9.678;2023-04-24T07:26:57;2.67;;;2.42;;
65373;SDS011;52070;53.760;9.678;2023-04-24T07:29:26;3.05;;;2.72;;
65373;SDS011;52070;53.760;9.678;2023-04-24T07:31:53;3.63;;;2.88;;
65373;SDS011;52070;53.760;9.678;2023-04-24T07:34:20;4.15;;;2.78;;
65373;SDS011;52070;53.760;9.678;2023-04-24T07:36:47;3.00;;;2.70;;
65373;SDS011;52070;53.760;9.678;2023-04-24T07:39:14;3.50;;;2.60;;
65373;SDS011;52070;53.760;9.678;2023-04-24T07:41:42;5.00;;;2.90;;
65373;SDS011;52070;53.760;9.678;2023-04-24T07:44:09;4.57;;;2.72;;
65373;SDS011;52070;53.760;9.678;2023-04-24T07:46:36;4.15;;;2.72;;
65373;SDS011;52070;53.760;9.678;2023-04-24T07:49:03;3.25;;;2.67;;
65373;SDS011;52070;53.760;9.678;2023-04-24T07:51:31;3.40;;;2.70;;
65373;SDS011;52070;53.760;9.678;2023-04-24T07:53:59;3.67;;;2.78;;
65373;SDS011;52070;53.760;9.678;2023-04-24T07:56:26;3.97;;;2.65;;
65373;SDS011;52070;53.760;9.678;2023-04-24T07:58:54;3.58;;;2.67;;
65373;SDS011;52070;53.760;9.678;2023-04-24T08:01:21;3.47;;;2.80;;
65373;SDS011;52070;53.760;9.678;2023-04-24T08:03:48;3.95;;;3.00;;
65373;SDS011;52070;53.760;9.678;2023-04-24T08:06:15;3.55;;;2.90;;
65373;SDS011;52070;53.760;9.678;2023-04-24T08:08:41;5.40;;;3.10;;
65373;SDS011;52070;53.760;9.678;2023-04-24T08:11:08;3.65;;;3.08;;
65373;SDS011;52070;53.760;9.678;2023-04-24T08:13:35;3.25;;;2.92;;
65373;SDS011;52070;53.760;9.678;2023-04-24T08:16:04;3.78;;;3.38;;
65373;SDS011;52070;53.760;9.678;2023-04-24T08:18:31;6.43;;;4.07;;
65373;SDS011;52070;53.760;9.678;2023-04-24T08:20:58;5.38;;;3.30;;
65373;SDS011;52070;53.760;9.678;2023-04-24T08:23:26;5.32;;;3.17;;
65373;SDS011;52070;53.760;9.678;2023-04-24T08:25:55;3.83;;;3.42;;
65373;SDS011;52070;53.760;9.678;2023-04-24T08:28:22;6.50;;;4.00;;
65373;SDS011;52070;53.760;9.678;2023-04-24T08:30:49;4.25;;;3.50;;
65373;SDS011;52070;53.760;9.678;2023-04-24T08:33:21;4.43;;;3.50;;
65373;SDS011;52070;53.760;9.678;2023-04-24T08:35:48;4.18;;;3.78;;
65373;SDS011;52070;53.760;9.678;2023-04-24T08:38:15;5.20;;;3.30;;
65373;SDS011;52070;53.760;9.678;2023-04-24T08:40:42;5.63;;;3.28;;
65373;SDS011;52070;53.760;9.678;2023-04-24T08:43:11;5.63;;;3.65;;
65373;SDS011;52070;53.760;9.678;2023-04-24T08:45:40;4.63;;;3.90;;
65373;SDS011;52070;53.760;9.678;2023-04-24T08:48:07;6.55;;;3.60;;
65373;SDS011;52070;53.760;9.678;2023-04-24T08:50:35;6.22;;;3.67;;
65373;SDS011;52070;53.760;9.678;2023-04-24T08:53:03;7.10;;;3.72;;
65373;SDS011;52070;53.760;9.678;2023-04-24T08:55:31;4.43;;;3.35;;
65373;SDS011;52070;53.760;9.678;2023-04-24T09:01:21;9.07;;;4.50;;
65373;SDS011;52070;53.760;9.678;2023-04-24T09:03:51;7.10;;;4.53;;
65373;SDS011;52070;53.760;9.678;2023-04-24T09:06:22;6.50;;;5.13;;
65373;SDS011;52070;53.760;9.678;2023-04-24T09:08:50;9.43;;;4.60;;
65373;SDS011;52070;53.760;9.678;2023-04-24T09:11:21;5.55;;;4.65;;
65373;SDS011;52070;53.760;9.678;2023-04-24T09:13:50;7.85;;;5.22;;
65373;SDS011;52070;53.760;9.678;2023-04-24T09:16:17;6.13;;;5.13;;
65373;SDS011;52070;53.760;9.678;2023-04-24T09:18:45;6.07;;;5.07;;
65373;SDS011;52070;53.760;9.678;2023-04-24T09:21:13;7.72;;;5.68;;
65373;SDS011;52070;53.760;9.678;2023-04-24T09:23:41;8.50;;;5.68;;
65373;SDS011;52070;53.760;9.678;2023-04-24T09:26:09;9.25;;;5.30;;
65373;SDS011;52070;53.760;9.678;2023-04-24T09:31:59;7.80;;;6.05;;
65373;SDS011;52070;53.760;9.678;2023-04-24T09:41:29;8.18;;;5.38;;
65373;SDS011;52070;53.760;9.678;2023-04-24T09:43:57;7.03;;;5.82;;
65373;SDS011;52070;53.760;9.678;2023-04-24T09:46:36;7.15;;;5.50;;
65373;SDS011;52070;53.760;9.678;2023-04-24T09:49:07;10.23;;;5.72;;
65373;SDS011;52070;53.760;9.678;2023-04-24T09:51:36;6.20;;;5.40;;
65373;SDS011;52070;53.760;9.678;2023-04-24T09:54:04;7.05;;;5.28;;
65373;SDS011;52070;53.760;9.678;2023-04-24T09:56:43;7.60;;;4.90;;
65373;SDS011;52070;53.760;9.678;2023-04-24T09:59:11;7.00;;;4.32;;
65373;SDS011;52070;53.760;9.678;2023-04-24T10:01:39;4.97;;;4.35;;
65373;SDS011;52070;53.760;9.678;2023-04-24T10:04:14;6.68;;;4.90;;
65373;SDS011;52070;53.760;9.678;2023-04-24T10:06:42;6.55;;;4.90;;
65373;SDS011;52070;53.760;9.678;2023-04-24T10:09:10;7.03;;;4.93;;
65373;SDS011;52070;53.760;9.678;2023-04-24T10:11:38;6.63;;;4.90;;
65373;SDS011;52070;53.760;9.678;2023-04-24T10:14:11;7.72;;;5.18;;
65373;SDS011;52070;53.760;9.678;2023-04-24T10:16:40;7.05;;;4.85;;
65373;SDS011;52070;53.760;9.678;2023-04-24T10:19:07;7.32;;;5.28;;
65373;SDS011;52070;53.760;9.678;2023-04-24T10:21:34;7.30;;;5.07;;
65373;SDS011;52070;53.760;9.678;2023-04-24T10:24:03;7.68;;;5.32;;
65373;SDS011;52070;53.760;9.678;2023-04-24T10:26:31;8.80;;;5.50;;
65373;SDS011;52070;53.760;9.678;2023-04-24T10:29:00;7.45;;;5.57;;
65373;SDS011;52070;53.760;9.678;2023-04-24T10:31:29;8.07;;;4.82;;
65373;SDS011;52070;53.760;9.678;2023-04-24T10:33:58;7.25;;;5.40;;
65373;SDS011;52070;53.760;9.678;2023-04-24T10:36:26;7.70;;;4.90;;
65373;SDS011;52070;53.760;9.678;2023-04-24T10:38:54;7.22;;;5.10;;
65373;SDS011;52070;53.760;9.678;2023-04-24T10:41:23;8.02;;;4.75;;
65373;SDS011;52070;53.760;9.678;2023-04-24T10:44:05;7.35;;;5.05;;
65373;SDS011;52070;53.760;9.678;2023-04-24T10:46:32;14.00;;;5.77;;
65373;SDS011;52070;53.760;9.678;2023-04-24T10:48:59;11.98;;;5.55;;
65373;SDS011;52070;53.760;9.678;2023-04-24T10:51:43;10.07;;;6.05;;
65373;SDS011;52070;53.760;9.678;2023-04-24T10:54:24;8.18;;;5.57;;
65373;SDS011;52070;53.760;9.678;2023-04-24T10:56:52;8.63;;;6.03;;
65373;SDS011;52070;53.760;9.678;2023-04-24T10:59:27;9.15;;;5.95;;
65373;SDS011;52070;53.760;9.678;2023-04-24T11:02:02;8.43;;;5.75;;
65373;SDS011;52070;53.760;9.678;2023-04-24T11:04:33;7.35;;;5.65;;
65373;SDS011;52070;53.760;9.678;2023-04-24T11:07:02;6.75;;;5.70;;
65373;SDS011;52070;53.760;9.678;2023-04-24T11:09:30;7.88;;;5.70;;
65373;SDS011;52070;53.760;9.678;2023-04-24T11:12:03;7.10;;;5.72;;
65373;SDS011;52070;53.760;9.678;2023-04-24T11:17:29;10.02;;;6.68;;
65373;SDS011;52070;53.760;9.678;2023-04-24T11:20:00;14.48;;;7.60;;
65373;SDS011;52070;53.760;9.678;2023-04-24T11:22:27;11.30;;;7.50;;
65373;SDS011;52070;53.760;9.678;2023-04-24T11:24:57;11.82;;;8.02;;
65373;SDS011;52070;53.760;9.678;2023-04-24T11:27:29;13.98;;;8.35;;
65373;SDS011;52070;53.760;9.678;2023-04-24T11:30:00;15.57;;;8.88;;
65373;SDS011;52070;53.760;9.678;2023-04-24T11:32:30;11.95;;;9.75;;
65373;SDS011;52070;53.760;9.678;2023-04-24T11:35:01;12.05;;;9.25;;
65373;SDS011;52070;53.760;9.678;2023-04-24T11:37:33;16.98;;;10.00;;
65373;SDS011;52070;53.760;9.678;2023-04-24T11:40:01;12.80;;;9.82;;
65373;SDS011;52070;53.760;9.678;2023-04-24T11:42:33;16.35;;;10.10;;
65373;SDS011;52070;53.760;9.678;2023-04-24T11:45:02;16.63;;;10.20;;
65373;SDS011;52070;53.760;9.678;2023-04-24T11:47:34;14.32;;;9.60;;
65373;SDS011;52070;53.760;9.678;2023-04-24T11:50:01;15.00;;;9.93;;
65373;SDS011;52070;53.760;9.678;2023-04-24T11:52:30;15.23;;;10.13;;
65373;SDS011;52070;53.760;9.678;2023-04-24T11:54:57;14.30;;;9.20;;
65373;SDS011;52070;53.760;9.678;2023-04-24T11:57:25;12.93;;;8.77;;
65373;SDS011;52070;53.760;9.678;2023-04-24T11:59:54;16.95;;;8.85;;
65373;SDS011;52070;53.760;9.678;2023-04-24T12:02:23;15.60;;;9.45;;
65373;SDS011;52070;53.760;9.678;2023-04-24T12:04:50;13.50;;;7.82;;
65373;SDS011;52070;53.760;9.678;2023-04-24T12:07:18;12.35;;;8.18;;
65373;SDS011;52070;53.760;9.678;2023-04-24T12:09:46;13.32;;;8.32;;
65373;SDS011;52070;53.760;9.678;2023-04-24T12:12:15;17.13;;;8.00;;
65373;SDS011;52070;53.760;9.678;2023-04-24T12:14:43;11.63;;;8.55;;
65373;SDS011;52070;53.760;9.678;2023-04-24T12:17:11;16.27;;;8.45;;
65373;SDS011;52070;53.760;9.678;2023-04-24T12:19:44;11.75;;;8.13;;
65373;SDS011;52070;53.760;9.678;2023-04-24T12:22:12;12.55;;;8.27;;
65373;SDS011;52070;53.760;9.678;2023-04-24T12:27:24;10.82;;;7.43;;
65373;SDS011;52070;53.760;9.678;2023-04-24T12:29:52;8.80;;;6.80;;
65373;SDS011;52070;53.760;9.678;2023-04-24T12:32:19;9.75;;;6.85;;
65373;SDS011;52070;53.760;9.678;2023-04-24T12:34:48;12.30;;;7.25;;
65373;SDS011;52070;53.760;9.678;2023-04-24T12:37:16;9.10;;;7.10;;
65373;SDS011;52070;53.760;9.678;2023-04-24T12:39:44;7.60;;;6.72;;
65373;SDS011;52070;53.760;9.678;2023-04-24T12:42:25;11.80;;;6.85;;
65373;SDS011;52070;53.760;9.678;2023-04-24T12:44:55;11.25;;;7.47;;
65373;SDS011;52070;53.760;9.678;2023-04-24T12:47:24;10.18;;;6.68;;
65373;SDS011;52070;53.760;9.678;2023-04-24T12:49:52;11.05;;;6.90;;
65373;SDS011;52070;53.760;9.678;2023-04-24T12:52:20;8.20;;;6.25;;
65373;SDS011;52070;53.760;9.678;2023-04-24T12:54:49;8.10;;;5.43;;
65373;SDS011;52070;53.760;9.678;2023-04-24T12:57:16;9.32;;;5.47;;
65373;SDS011;52070;53.760;9.678;2023-04-24T12:59:44;7.53;;;5.18;;
65373;SDS011;52070;53.760;9.678;2023-04-24T13:02:11;5.63;;;5.03;;
65373;SDS011;52070;53.760;9.678;2023-04-24T13:04:38;6.75;;;5.50;;
65373;SDS011;52070;53.760;9.678;2023-04-24T13:07:06;7.05;;;5.72;;
65373;SDS011;52070;53.760;9.678;2023-04-24T13:09:34;7.45;;;5.72;;
65373;SDS011;52070;53.760;9.678;2023-04-24T13:12:01;8.40;;;5.22;;
65373;SDS011;52070;53.760;9.678;2023-04-24T13:14:28;8.98;;;5.68;;
65373;SDS011;52070;53.760;9.678;2023-04-24T13:16:55;9.82;;;6.35;;
65373;SDS011;52070;53.760;9.678;2023-04-24T13:19:23;8.25;;;6.25;;
65373;SDS011;52070;53.760;9.678;2023-04-24T13:21:51;7.28;;;6.05;;
65373;SDS011;52070;53.760;9.678;2023-04-24T13:24:19;10.65;;;6.32;;
65373;SDS011;52070;53.760;9.678;2023-04-24T13:26:46;9.40;;;6.53;;
65373;SDS011;52070;53.760;9.678;2023-04-24T13:29:13;8.25;;;6.07;;
65373;SDS011;52070;53.760;9.678;2023-04-24T13:31:40;9.57;;;6.63;;
65373;SDS011;52070;53.760;9.678;2023-04-24T13:34:07;7.20;;;6.22;;
65373;SDS011;52070;53.760;9.678;2023-04-24T13:36:34;7.85;;;5.93;;
65373;SDS011;52070;53.760;9.678;2023-04-24T13:39:01;7.35;;;6.30;;
65373;SDS011;52070;53.760;9.678;2023-04-24T13:41:30;7.65;;;6.65;;
65373;SDS011;52070;53.760;9.678;2023-04-24T13:43:59;11.20;;;6.30;;
65373;SDS011;52070;53.760;9.678;2023-04-24T13:46:26;7.50;;;6.38;;
65373;SDS011;52070;53.760;9.678;2023-04-24T13:48:53;9.73;;;6.63;;
65373;SDS011;52070;53.760;9.678;2023-04-24T13:51:20;8.75;;;5.85;;
65373;SDS011;52070;53.760;9.678;2023-04-24T13:53:47;8.73;;;5.90;;
65373;SDS011;52070;53.760;9.678;2023-04-24T13:56:14;7.38;;;5.93;;
65373;SDS011;52070;53.760;9.678;2023-04-24T13:58:42;7.35;;;5.90;;
65373;SDS011;52070;53.760;9.678;2023-04-24T14:01:10;7.82;;;6.22;;
65373;SDS011;52070;53.760;9.678;2023-04-24T14:03:36;10.60;;;8.18;;
65373;SDS011;52070;53.760;9.678;2023-04-24T14:06:03;12.68;;;9.75;;
65373;SDS011;52070;53.760;9.678;2023-04-24T14:08:31;12.90;;;10.18;;
65373;SDS011;52070;53.760;9.678;2023-04-24T14:10:58;10.98;;;9.13;;
65373;SDS011;52070;53.760;9.678;2023-04-24T14:13:25;10.90;;;8.80;;
65373;SDS011;52070;53.760;9.678;2023-04-24T14:15:54;13.65;;;10.43;;
65373;SDS011;52070;53.760;9.678;2023-04-24T14:18:21;13.23;;;10.00;;
65373;SDS011;52070;53.760;9.678;2023-04-24T14:20:48;13.68;;;9.93;;
65373;SDS011;52070;53.760;9.678;2023-04-24T14:23:15;11.27;;;9.57;;
65373;SDS011;52070;53.760;9.678;2023-04-24T14:25:42;13.23;;;10.07;;
65373;SDS011;52070;53.760;9.678;2023-04-24T14:28:09;13.10;;;9.95;;
65373;SDS011;52070;53.760;9.678;2023-04-24T14:30:36;14.02;;;9.63;;
65373;SDS011;52070;53.760;9.678;2023-04-24T14:33:07;10.98;;;8.40;;
65373;SDS011;52070;53.760;9.678;2023-04-24T14:35:35;9.75;;;8.13;;
65373;SDS011;52070;53.760;9.678;2023-04-24T14:38:02;9.57;;;7.60;;
65373;SDS011;52070;53.760;9.678;2023-04-24T14:40:29;10.50;;;7.55;;
65373;SDS011;52070;53.760;9.678;2023-04-24T14:42:58;9.38;;;8.15;;
65373;SDS011;52070;53.760;9.678;2023-04-24T14:45:25;10.93;;;8.50;;
65373;SDS011;52070;53.760;9.678;2023-04-24T14:47:52;13.00;;;9.20;;
65373;SDS011;52070;53.760;9.678;2023-04-24T14:50:20;12.25;;;8.50;;
65373;SDS011;52070;53.760;9.678;2023-04-24T14:52:47;11.80;;;8.68;;
65373;SDS011;52070;53.760;9.678;2023-04-24T14:55:15;7.07;;;5.55;;
65373;SDS011;52070;53.760;9.678;2023-04-24T14:57:42;7.50;;;4.10;;
65373;SDS011;52070;53.760;9.678;2023-04-24T15:00:09;5.47;;;3.85;;
65373;SDS011;52070;53.760;9.678;2023-04-24T15:02:37;4.82;;;3.92;;
65373;SDS011;52070;53.760;9.678;2023-04-24T15:05:07;6.20;;;4.50;;
65373;SDS011;52070;53.760;9.678;2023-04-24T15:07:36;7.38;;;4.45;;
65373;SDS011;52070;53.760;9.678;2023-04-24T15:10:03;9.05;;;5.00;;